首页
METAR-TAF:

METAR-TAF

机场 :

穆尔塔拉·穆罕默德国际机场

拉哥斯, 尼日利亚

纬度: 06-35N, 经度: 003-20E, 海拔: 40米

当前天气观测

该预报发布于56分钟前的04:00 UTC
风速3节,风向西南
温度 27°C
湿度 89%
气压 1012 hPa
能见度10公里或以上
少量云层高于1100英尺

METAR: DNMM 280400Z 22003KT 9999 FEW011 27/25 Q1012 NOSIG

时间: 05:56 (04:56 UTC)

预报

该预报发布于5小时和56分钟前的23:00 UTC
预报有效从28日的 00点(UTC)到 29日的 06点(UTC)
风速2节,风向多变
能见度10公里或以上
散云层高于1100英尺
成为
从 28日的 08点(UTC)到 28日的 10点(UTC)
风速10节,风向南转西南
多云层高于1300英尺
短暂存在
从 28日的 14点(UTC)到 28日的 20点(UTC)
散云层高于1400英尺
少量云层高于2000英尺, 积雨云.
雷暴
成为
从 28日的 20点(UTC)到 28日的 22点(UTC)
风速2节,风向多变
散云层高于1100英尺

TAF: DNMM 272300Z 2800/2906 VRB02KT 9999 SCT011 BECMG 2808/2810 20010KT BKN013 TEMPO 2814/2820 TS SCT014 FEW020CB BECMG 2820/2822 VRB02KT SCT011

超过4000个机场的气象观测和天气预报(METAR&TAF报告)。

可查询的气象台以黄色和红色小点在地图上表示。

将鼠标移到小点上方,可查看气象台名称。

然后点击查看天气观测和预报。

如需切换地图:点击带黑十字的绿色按钮放大地图;点击带横线的绿色按钮缩小地图;或者点击绿色箭头查看邻近地区的地图。


METAR-TAF: